地図

経路データ

SID SEASON NUMBER BASIN SUBBASIN NAME ISO_TIME NATURE LAT LON WMO_WIND WMO_PRES WMO_AGENCY TRACK_TYPE DIST2LAND LANDFALL IFLAG USA_AGENCY USA_ATCF_ID USA_LAT USA_LON USA_RECORD USA_STATUS USA_WIND USA_PRES USA_SSHS USA_R34_NE USA_R34_SE USA_R34_SW USA_R34_NW USA_R50_NE USA_R50_SE USA_R50_SW USA_R50_NW USA_R64_NE USA_R64_SE USA_R64_SW USA_R64_NW USA_POCI USA_ROCI USA_RMW USA_EYE TOKYO_LAT TOKYO_LON TOKYO_GRADE TOKYO_WIND TOKYO_PRES TOKYO_R50_DIR TOKYO_R50_LONG TOKYO_R50_SHORT TOKYO_R30_DIR TOKYO_R30_LONG TOKYO_R30_SHORT TOKYO_LAND CMA_LAT CMA_LON CMA_CAT CMA_WIND CMA_PRES HKO_LAT HKO_LON HKO_CAT HKO_WIND HKO_PRES NEWDELHI_LAT NEWDELHI_LON NEWDELHI_GRADE NEWDELHI_WIND NEWDELHI_PRES NEWDELHI_CI NEWDELHI_DP NEWDELHI_POCI REUNION_LAT REUNION_LON REUNION_TYPE REUNION_WIND REUNION_PRES REUNION_TNUM REUNION_CI REUNION_RMW REUNION_R34_NE REUNION_R34_SE REUNION_R34_SW REUNION_R34_NW REUNION_R50_NE REUNION_R50_SE REUNION_R50_SW REUNION_R50_NW REUNION_R64_NE REUNION_R64_SE REUNION_R64_SW REUNION_R64_NW BOM_LAT BOM_LON BOM_TYPE BOM_WIND BOM_PRES BOM_TNUM BOM_CI BOM_RMW BOM_R34_NE BOM_R34_SE BOM_R34_SW BOM_R34_NW BOM_R50_NE BOM_R50_SE BOM_R50_SW BOM_R50_NW BOM_R64_NE BOM_R64_SE BOM_R64_SW BOM_R64_NW BOM_ROCI BOM_POCI BOM_EYE BOM_POS_METHOD BOM_PRES_METHOD NADI_LAT NADI_LON NADI_CAT NADI_WIND NADI_PRES WELLINGTON_LAT WELLINGTON_LON WELLINGTON_WIND WELLINGTON_PRES DS824_LAT DS824_LON DS824_STAGE DS824_WIND DS824_PRES TD9636_LAT TD9636_LON TD9636_STAGE TD9636_WIND TD9636_PRES TD9635_LAT TD9635_LON TD9635_WIND TD9635_PRES TD9635_ROCI NEUMANN_LAT NEUMANN_LON NEUMANN_CLASS NEUMANN_WIND NEUMANN_PRES MLC_LAT MLC_LON MLC_CLASS MLC_WIND MLC_PRES USA_GUST BOM_GUST BOM_GUST_PER REUNION_GUST REUNION_GUST_PER USA_SEAHGT USA_SEARAD_NE USA_SEARAD_SE USA_SEARAD_SW USA_SEARAD_NW STORM_SPEED STORM_DIR
1971022S14118 1971 10 SI WA RITA 1971-01-22 01:00:00 NR -14.1000 117.900 1004 bom main 503 503 ______O_______ -1 -14.1000 117.900 1004 8 205
1971022S14118 1971 10 SI WA RITA 1971-01-22 03:00:00 NR -14.3298 117.791 main 528 528 ______P_______ -1 -14.3298 117.791 7 202
1971022S14118 1971 10 SI WA RITA 1971-01-22 06:00:00 TS -14.6566 117.671 main 560 559 ______P_____O_ -1 -14.6754 117.628 -14.6000 117.800 TC 30 1000 7 201
1971022S14118 1971 10 SI WA RITA 1971-01-22 09:00:00 TS -15.0001 117.531 main 564 554 ______P_____P_ -1 -15.0239 117.465 -14.9525 117.663 TC 35 997 7 202
1971022S14118 1971 10 SI WA RITA 1971-01-22 12:00:00 TS -15.3439 117.387 main 559 531 ______P_____O_ -1 -15.3768 117.302 -15.3000 117.500 TC 40 994 8 204
1971022S14118 1971 10 SI WA RITA 1971-01-22 15:00:00 TS -15.6892 117.220 main 531 494 ______P_____P_ -1 -15.7359 117.139 -15.6425 117.300 TC 45 991 8 205
1971022S14118 1971 10 SI WA RITA 1971-01-22 18:00:00 TS -16.0515 117.038 main 494 465 ______P_____O_ -1 -16.1029 116.977 -16.0000 117.100 TC 50 988 8 203
1971022S14118 1971 10 SI WA RITA 1971-01-22 21:00:00 TS -16.4398 116.882 main 465 425 ______P_____P_ -1 -16.4797 116.815 -16.4000 116.950 TC 55 985 9 209
1971022S14118 1971 10 SI WA RITA 1971-01-23 00:00:00 TS -16.8309 116.593 main 425 414 O_____P__OO_O_ jtwc_sh SH111971 -16.8000 116.200 20 -1 -16.8678 116.654 -16.8000 116.200 TC 20 -16.8000 116.200 1 20 -16.8000 116.800 TC 60 982 10 218
1971022S14118 1971 10 SI WA RITA 1971-01-23 01:00:00 TS -16.9679 116.456 980 bom main 403 371 P_____O__PP_P_ SH111971 -16.9490 116.117 20 -1 -17.0000 116.600 980 -16.9490 116.117 TC 20 -16.9550 116.120 1 -16.9197 116.742 TC 60 981 11 217
1971022S14118 1971 10 SI WA RITA 1971-01-23 03:00:00 TS -17.2504 116.266 main 371 332 P_____P__PP_P_ SH111971 -17.2476 115.950 20 -1 -17.2687 116.493 -17.2476 115.950 TC 20 -17.2642 115.960 1 -17.1500 116.615 TC 60 981 10 211
1971022S14118 1971 10 SI WA RITA 1971-01-23 06:00:00 TS -17.6833 116.003 main 332 295 O_____P__OP_O_ jtwc_sh SH111971 -17.7000 115.700 20 -1 -17.6792 116.327 -17.7000 115.700 TC 20 -17.7227 115.716 1 -17.5000 116.400 TC 60 980 10 209
1971022S14118 1971 10 SI WA RITA 1971-01-23 09:00:00 TS -18.1169 115.764 main 295 261 P_____P__PP_P_ SH111971 -18.1575 115.450 17 -1 -18.0932 116.148 -18.1575 115.450 TC 17 -18.1698 115.463 1 -17.8925 116.157 TC 60 981 10 208
1971022S14118 1971 10 SI WA RITA 1971-01-23 12:00:00 TS -18.5417 115.517 main 266 231 O_____P__OO_O_ jtwc_sh SH111971 -18.6000 115.200 15 -1 -18.5044 115.947 -18.6000 115.200 TC 15 -18.6000 115.200 1 -18.3000 115.900 TC 60 982 10 210
1971022S14118 1971 10 SI WA RITA 1971-01-23 15:00:00 TS -18.9504 115.266 main 231 212 P_____P__PP_P_ SH111971 -19.0225 114.950 17 -1 -18.9066 115.715 -19.0225 114.950 TC 17 -19.0072 114.926 1 -18.7075 115.650 TC 57 982 9 211
1971022S14118 1971 10 SI WA RITA 1971-01-23 18:00:00 TS -19.3287 115.010 main 218 194 O_____P__OP_O_ jtwc_sh SH111971 -19.4000 114.700 20 -1 -19.2934 115.442 -19.4000 114.700 TC 20 -19.3826 114.655 1 -19.1000 115.400 TC 55 983 9 214
1971022S14118 1971 10 SI WA RITA 1971-01-23 21:00:00 TS -19.6699 114.745 main 200 190 P_____P__PP_P_ SH111971 -19.7300 114.435 20 -1 -19.6584 115.120 -19.7300 114.435 TC 20 -19.7166 114.407 1 -19.4650 115.150 TC 55 983 8 217
1971022S14118 1971 10 SI WA RITA 1971-01-24 00:00:00 TS -19.9659 114.490 main 190 190 O_____P__OO_O_ jtwc_sh SH111971 -20.0000 114.200 20 -1 -19.9952 114.741 -20.0000 114.200 TC 20 -20.0000 114.200 1 20 -19.8000 114.900 TC 55 984 8 219
1971022S14118 1971 10 SI WA RITA 1971-01-24 01:00:00 TS -20.0569 114.408 985 bom main 186 178 P_____O__PP_P_ SH111971 -20.0807 114.133 20 -1 -20.1000 114.600 985 -20.0807 114.133 TC 20 -20.0829 114.145 1 -19.9136 114.809 TC 54 984 7 221
1971022S14118 1971 10 SI WA RITA 1971-01-24 03:00:00 TS -20.2232 114.251 987 bom main 178 164 P_____O__PP_P_ SH111971 -20.2225 114.020 22 -1 -20.3000 114.300 987 -20.2225 114.020 TC 22 -20.2292 114.052 1 -20.1300 114.628 TC 52 985 6 221
1971022S14118 1971 10 SI WA RITA 1971-01-24 06:00:00 TS -20.4293 114.068 main 164 145 O_____P__OP_O_ jtwc_sh SH111971 -20.4000 113.900 25 -1 -20.5340 113.965 -20.4000 113.900 TC 25 -20.4097 113.947 1 -20.4000 114.400 TC 50 987 5 217
1971022S14118 1971 10 SI WA RITA 1971-01-24 09:00:00 TS -20.5900 113.952 main 145 134 P_____P__PP_P_ SH111971 -20.5575 113.842 30 -1 -20.6980 113.768 -20.5575 113.842 TC 30 -20.5605 113.868 1 -20.5649 114.270 TC 50 987 4 210
1971022S14118 1971 10 SI WA RITA 1971-01-24 12:00:00 TS -20.7288 113.876 main 134 113 O_____P__OO_O_ jtwc_sh SH111971 -20.7000 113.800 35 0 -20.8191 113.679 -20.7000 113.800 TC 35 -20.7000 113.800 1 -20.7000 114.200 TC 50 988 3 208
1971022S14118 1971 10 SI WA RITA 1971-01-24 15:00:00 TS -20.8767 113.795 main 113 102 P_____P__PP_P_ SH111971 -20.8500 113.700 37 0 -20.9241 113.667 -20.8500 113.700 TC 37 -20.8369 113.681 1 -20.9000 114.150 TC 50 988 3 205
1971022S14118 1971 10 SI WA RITA 1971-01-24 18:00:00 TS -21.0264 113.730 main 105 84 O_____P__OP_O_ jtwc_sh SH111971 -21.0000 113.600 40 0 -21.0397 113.703 -21.0000 113.600 TC 40 -20.9700 113.575 1 -21.1000 114.100 TC 50 988 3 200
1971022S14118 1971 10 SI WA RITA 1971-01-24 21:00:00 TS -21.1738 113.675 main 84 63 P_____P__PP_P_ SH111971 -21.1350 113.513 42 0 -21.1925 113.756 -21.1350 113.513 TC 42 -21.1181 113.507 1 -21.2500 113.985 TC 50 988 3 191
1971022S14118 1971 10 SI WA RITA 1971-01-25 00:00:00 TS -21.3515 113.666 main 63 63 O_____P__OO_O_ jtwc_sh SH111971 -21.3000 113.500 45 0 -21.4090 113.795 -21.3000 113.500 TC 45 -21.3000 113.500 2 45 -21.4000 113.900 TC 50 989 4 0
1971022S14118 1971 10 SI WA RITA 1971-01-25 01:00:00 TS -21.4274 113.686 990 bom main 63 54 P_____O__PP_P_ SH111971 -21.3693 113.527 44 0 -21.5000 113.800 990 -21.3693 113.527 TC 44 -21.3811 113.539 2 -21.4583 113.894 TC 48 989 5 165
1971022S14118 1971 10 SI WA RITA 1971-01-25 02:00:00 TS -21.5090 113.714 990 bom main 54 39 P_____O__PP_P_ SH111971 -21.4455 113.568 43 0 -21.6000 113.800 990 -21.4455 113.568 TC 43 -21.4680 113.590 2 -21.5200 113.899 TC 46 989 5 156
1971022S14118 1971 10 SI WA RITA 1971-01-25 03:00:00 TS -21.5932 113.753 main 39 10 P_____P__PP_P_ SH111971 -21.5275 113.620 42 0 -21.6940 113.819 990 -21.5275 113.620 TC 42 -21.5595 113.649 2 -21.5850 113.913 TC 45 989 6 152
1971022S14118 1971 10 SI WA RITA 1971-01-25 06:00:00 TS -21.8551 113.910 main 10 0 O_____P__OP_O_ jtwc_sh SH111971 -21.8000 113.800 40 0 -21.9439 113.975 990 -21.8000 113.800 TC 40 -21.8502 113.851 2 -21.8000 114.000 TC 40 990 6 149
1971022S14118 1971 10 SI WA RITA 1971-01-25 09:00:00 TS -22.1228 114.094 main 0 0 P_____P__PP_P_ SH111971 -22.1000 114.010 37 0 -22.1718 114.177 990 -22.1000 114.010 TC 37 -22.1407 114.027 2 -22.0351 114.165 TC 37 990 6 153
1971022S14118 1971 10 SI WA RITA 1971-01-25 12:00:00 TS -22.3853 114.200 main 10 0 O_____P__OO_O_ jtwc_sh SH111971 -22.4000 114.100 35 0 -22.4115 114.299 990 -22.4000 114.100 TC 35 -22.4000 114.100 2 -22.3000 114.300 TC 35 990 5 166
1971022S14118 1971 10 SI WA RITA 1971-01-25 13:00:00 TS -22.4711 114.187 990 bom main 0 0 P_____O__PP_P_ SH111971 -22.4996 114.063 33 -1 -22.5000 114.300 990 4 -22.4996 114.063 TC 33 -22.4866 114.060 2 -22.4074 114.319 TC 35 990 5 199
1971022S14118 1971 10 SI WA RITA 1971-01-25 15:00:00 TS -22.6412 114.105 main 0 0 P_____P__PP_P_ SH111971 -22.6876 113.910 30 -1 -22.7217 114.227 991 -22.6876 113.910 TC 30 -22.6514 113.930 2 -22.6299 114.318 TC 35 991 5 212
1971022S14118 1971 10 SI WA RITA 1971-01-25 17:00:00 TS -22.7790 113.975 992 bom main 0 0 P_____O__PP_P_ SH111971 -22.8422 113.705 26 -1 -22.9000 114.100 992 -22.8422 113.705 TC 26 -22.7964 113.753 2 -22.8259 114.256 TC 35 991 5 225
1971022S14118 1971 10 SI WA RITA 1971-01-25 18:00:00 TS -22.8273 113.901 main 0 0 O_____P__OP_O_ jtwc_sh SH111971 -22.9000 113.600 25 -1 -22.9510 114.028 992 -22.9000 113.600 TC 25 -22.8583 113.654 2 -22.9000 114.200 TC 35 992 5 247
1971022S14118 1971 10 SI WA RITA 1971-01-25 21:00:00 TS -22.9044 113.656 main 10 20 P_____P__PP_P_ SH111971 -23.0251 113.320 22 -1 -22.9994 113.753 993 -23.0251 113.320 TC 22 -22.9859 113.351 2 -23.0177 113.915 TC 37 993 5 253
1971022S14118 1971 10 SI WA RITA 1971-01-25 21:30:00 TS -22.9067 113.614 994 bom main 20 20 P_____O__PP_P_ SH111971 -23.0327 113.276 22 -1 -23.0000 113.700 994 -23.0327 113.276 TC 22 -22.9970 113.304 2 -23.0235 113.859 TC 37 993 4 278
1971022S14118 1971 10 SI WA RITA 1971-01-26 00:00:00 TS -22.8752 113.418 main 38 30 O_____P__OO_O_ jtwc_sh SH111971 -23.0000 113.100 20 -1 -23.0089 113.412 994 -23.0000 113.100 TC 20 -23.0000 113.100 1 20 -23.0000 113.600 TC 40 994 4 286
1971022S14118 1971 10 SI WA RITA 1971-01-26 01:00:00 TS -22.8396 113.361 995 bom main 30 30 P_____O__PP_P_ SH111971 -22.9509 113.058 20 -1 -23.0000 113.300 995 -22.9509 113.058 TC 20 -22.9702 113.060 1 -22.9754 113.525 TC 40 994 4 319
1971022S14118 1971 10 SI WA RITA 1971-01-26 03:00:00 TS -22.7260 113.275 main 32 32 P_____P__PP_P_ SH111971 -22.7949 113.012 20 -1 -22.9362 113.128 -22.7949 113.012 TC 20 -22.8648 113.006 1 -22.8874 113.405 TC 40 994 5 337
1971022S14118 1971 10 SI WA RITA 1971-01-26 06:00:00 TS -22.4946 113.198 main 42 42 O_____P__OP_O_ jtwc_sh SH111971 -22.5000 113.000 20 -1 -22.7509 112.955 -22.5000 113.000 TC 20 -22.6197 112.975 1 -22.7000 113.300 TC 40 995 5 347
1971022S14118 1971 10 SI WA RITA 1971-01-26 09:00:00 TS -22.2547 113.152 main 53 60 P_____P__PP_P_ SH111971 -22.2500 112.985 20 -1 -22.4900 112.868 -22.2500 112.985 TC 20 -22.3148 112.981 1 -22.5075 113.285 TC 37 995 5 353
1971022S14118 1971 10 SI WA RITA 1971-01-26 12:00:00 TS -22.0069 113.133 main 79 79 O_____P__OO_O_ jtwc_sh SH111971 -22.0000 113.000 20 -1 -22.1893 112.846 -22.0000 113.000 TC 20 -22.0000 113.000 2 -22.3000 113.300 TC 35 996 5 0
1971022S14118 1971 10 SI WA RITA 1971-01-26 15:00:00 TS -21.7584 113.123 main 89 93 P_____P__PP_P_ SH111971 -21.7500 113.058 20 -1 -21.8848 112.868 -21.7500 113.058 TC 20 -21.6362 113.013 2 -22.1075 113.257 TC 35 996 5 360
1971022S14118 1971 10 SI WA RITA 1971-01-26 18:00:00 TS -21.5240 113.110 main 103 103 O_____P__OP_O_ jtwc_sh SH111971 -21.5000 113.100 20 -1 -21.6120 112.914 -21.5000 113.100 TC 20 -21.2900 113.030 2 -21.9000 113.200 TC 35 997 5 356
1971022S14118 1971 10 SI WA RITA 1971-01-26 21:00:00 TS -21.2849 113.075 main 114 114 P_____P__PP_P_ SH111971 -21.1675 113.072 20 -1 -21.4068 112.963 -21.1675 113.072 TC 20 -21.0487 113.031 2 -21.5900 113.157 TC 35 997 4 345
1971022S14118 1971 10 SI WA RITA 1971-01-27 00:00:00 TS -21.1841 113.016 main 129 129 O_____P__OO_O_ jtwc_sh SH111971 -21.0000 113.000 20 -1 -21.3048 112.996 -21.0000 113.000 TC 20 -21.0000 113.000 1 20 -21.4000 113.100 TC 35 997 2 312
1971022S14118 1971 10 SI WA RITA 1971-01-27 01:00:00 TS -21.2148 112.994 998 bom main 129 123 P_____O__PP_P_ SH111971 -21.0215 112.975 20 -1 -21.3000 113.000 998 -21.0215 112.975 TC 20 -21.0586 112.975 1 -21.4022 113.072 TC 35 997 4 202
1971022S14118 1971 10 SI WA RITA 1971-01-27 03:00:00 TS -21.3672 112.936 main 126 112 P_____P__PP_P_ SH111971 -21.1725 112.915 20 -1 -21.4269 112.958 -21.1725 112.915 TC 20 -21.2570 112.911 1 -21.4950 113.008 TC 35 997 7 196
1971022S14118 1971 10 SI WA RITA 1971-01-27 06:00:00 TS -21.7402 112.832 main 121 99 O_____P__OP_O_ jtwc_sh SH111971 -21.6000 112.800 20 -1 -21.7131 112.886 -21.6000 112.800 TC 20 -21.7051 112.788 1 -21.8000 112.900 TC 35 998 9 194
1971022S14118 1971 10 SI WA RITA 1971-01-27 09:00:00 TS -22.2219 112.712 main 102 93 P_____P__PP_P_ SH111971 -22.1775 112.650 20 -1 -22.0913 112.803 -22.1775 112.650 TC 20 -22.2507 112.646 1 -22.2200 112.800 TC 35 998 10 193
1971022S14118 1971 10 SI WA RITA 1971-01-27 12:00:00 TS -22.7455 112.588 main 103 104 O_____P__OO_O_ jtwc_sh SH111971 -22.8000 112.500 20 -1 -22.5360 112.707 -22.8000 112.500 TC 20 -22.8000 112.500 1 -22.7000 112.700 TC 35 998 10 192
1971022S14118 1971 10 SI WA RITA 1971-01-27 15:00:00 TS -23.2039 112.484 main 128 116 P_____P__PP_P_ SH111971 -23.2874 112.400 20 -1 -23.0211 112.596 -23.2874 112.400 TC 20 -23.2467 112.395 1 -23.1075 112.600 TC 35 998 9 193
1971022S14118 1971 10 SI WA RITA 1971-01-27 18:00:00 TS -23.6338 112.375 main 116 114 O_____P__OP_O_ jtwc_sh SH111971 -23.7000 112.300 20 -1 -23.5210 112.469 -23.7000 112.300 TC 20 -23.6747 112.287 1 -23.5000 112.500 TC 35 998 9 194
1971022S14118 1971 10 SI WA RITA 1971-01-27 21:00:00 TS -24.0478 112.250 main 129 122 P_____P__PP_P_ SH111971 -24.0874 112.172 20 -1 -24.0099 112.324 -24.0874 112.172 TC 20 -24.0654 112.161 1 -23.9150 112.415 TC 35 998 8 198
1971022S14118 1971 10 SI WA RITA 1971-01-28 00:00:00 TS -24.4103 112.093 main 131 131 O_____P__OO_O_ jtwc_sh SH111971 -24.4000 112.000 20 -1 -24.4620 112.159 -24.4000 112.000 TC 20 -24.4000 112.000 1 20 -24.3000 112.300 TC 35 998 8 203
1971022S14118 1971 10 SI WA RITA 1971-01-28 01:00:00 TS -24.5111 112.028 998 bom main 142 142 P_____O__PP_P_ SH111971 -24.4838 111.928 20 -1 -24.6000 112.100 998 -24.4838 111.928 TC 20 -24.4935 111.933 1 -24.4167 112.247 TC 35 998 7 216
1971022S14118 1971 10 SI WA RITA 1971-01-28 03:00:00 TS -24.6776 111.882 main 155 155 P_____P__PP_P_ SH111971 -24.6225 111.765 20 -1 -24.7798 111.958 -24.6225 111.765 TC 20 -24.6576 111.786 1 -24.6300 112.123 TC 35 998 6 223
1971022S14118 1971 10 SI WA RITA 1971-01-28 06:00:00 TS -24.8918 111.638 main 190 190 O_____P__OP_O_ jtwc_sh SH111971 -24.8000 111.500 20 -1 -25.0166 111.723 -24.8000 111.500 TC 20 -24.8601 111.537 1 -24.9000 111.900 TC 35 998 6 227
1971022S14118 1971 10 SI WA RITA 1971-01-28 09:00:00 TS -25.0907 111.387 main 211 211 P_____P__PP_P_ SH111971 -25.0000 111.250 20 -1 -25.2241 111.469 -25.0000 111.250 TC 20 -25.0326 111.270 1 -25.1150 111.657 TC 35 998 6 230
1971022S14118 1971 10 SI WA RITA 1971-01-28 12:00:00 TS -25.2788 111.131 main 234 234 O_____P__OO_O_ jtwc_sh SH111971 -25.2000 111.000 20 -1 -25.4135 111.207 -25.2000 111.000 TC 20 -25.2000 111.000 1 -25.3000 111.400 TC 35 998 6 231
1971022S14118 1971 10 SI WA RITA 1971-01-28 15:00:00 TS -25.4675 110.874 main 249 249 P_____P__PP_P_ SH111971 -25.4000 110.750 20 -1 -25.5959 110.946 -25.4000 110.750 TC 20 -25.3717 110.721 1 -25.4925 111.142 TC 35 998 6 230
1971022S14118 1971 10 SI WA RITA 1971-01-28 18:00:00 TS -25.6617 110.624 main 273 273 O_____P__OP_O_ jtwc_sh SH111971 -25.6000 110.500 20 -1 -25.7827 110.695 -25.6000 110.500 TC 20 -25.5477 110.447 1 -25.7000 110.900 TC 35 998 6 228
1971022S14118 1971 10 SI WA RITA 1971-01-28 21:00:00 TS -25.8633 110.381 main 290 290 P_____P__PP_P_ SH111971 -25.7775 110.227 20 -1 -25.9854 110.463 -25.7775 110.227 TC 20 -25.7499 110.200 1 -25.9350 110.685 TC 35 998 6 222
1971022S14118 1971 10 SI WA RITA 1971-01-29 00:00:00 TS -26.1026 110.177 main 309 309 O_____P__OO_O_ jtwc_sh SH111971 -26.0000 110.000 20 -1 -26.2153 110.260 -26.0000 110.000 TC 20 -26.0000 110.000 1 15 -26.2000 110.500 TC 35 998 6 215
1971022S14118 1971 10 SI WA RITA 1971-01-29 01:00:00 TS -26.1962 110.121 998 bom main 318 318 P_____O__PP_P_ SH111971 -26.0969 109.947 20 -1 -26.3000 110.200 998 -26.0969 109.947 TC 20 -26.1014 109.950 1 -26.2917 110.439 TC 35 998 7 204
1971022S14118 1971 10 SI WA RITA 1971-01-29 03:00:00 TS -26.4028 110.030 main 328 328 P_____P__PP_P_ SH111971 -26.3199 109.870 20 -1 -26.4832 110.094 -26.3199 109.870 TC 20 -26.3244 109.870 1 -26.4850 110.328 TC 35 998 7 197
1971022S14118 1971 10 SI WA RITA 1971-01-29 06:00:00 TS -26.7487 109.930 main 340 342 O_____P__OP_O_ jtwc_sh SH111971 -26.7000 109.800 20 -1 -26.7901 109.966 -26.7000 109.800 TC 20 -26.6972 109.789 1 -26.8000 110.200 TC 35 998 7 192
1971022S14118 1971 10 SI WA RITA 1971-01-29 09:00:00 TS -27.1197 109.860 main 349 349 P_____P__PP_P_ SH111971 -27.1000 109.742 17 -1 -27.1308 109.870 -27.1000 109.742 TC 17 -27.0964 109.739 1 -27.1350 110.135 TC 35 998 8 188
1971022S14118 1971 10 SI WA RITA 1971-01-29 12:00:00 TS -27.5057 109.810 main 371 371 O_____P__OO_O_ jtwc_sh SH111971 -27.5000 109.700 15 -1 -27.5001 109.802 -27.5000 109.700 TC 15 -27.5000 109.700 1 -27.5000 110.100 TC 35 998 8 187
1971022S14118 1971 10 SI WA RITA 1971-01-29 15:00:00 TS -27.8859 109.762 main 389 389 P_____P__PP_P_ SH111971 -27.8500 109.650 15 -1 -27.8927 109.756 -27.8500 109.650 TC 15 -27.8904 109.657 1 -27.9000 110.057 TC 32 998 8 186
1971022S14118 1971 10 SI WA RITA 1971-01-29 18:00:00 TS -28.2713 109.717 main 419 419 O_____P__OP_O_ jtwc_sh SH111971 -28.2000 109.600 15 -1 -28.3032 109.728 -28.2000 109.600 TC 15 -28.2676 109.608 1 -28.3000 110.000 TC 30 999 8 185
1971022S14118 1971 10 SI WA RITA 1971-01-29 21:00:00 TS -28.6667 109.671 main 442 442 P_____P__PP_P_ SH111971 -28.5875 109.550 15 -1 -28.7261 109.712 -28.5875 109.550 TC 15 -28.6360 109.555 1 -28.6625 109.910 TC 30 999 8 186
1971022S14118 1971 10 SI WA RITA 1971-01-30 00:00:00 TS -29.0732 109.629 main 462 455 O_____P__OO_O_ jtwc_sh SH111971 -29.0000 109.500 15 -1 -29.1560 109.702 -29.0000 109.500 TC 15 -29.0000 109.500 6 -29.0000 109.800 TC 30 999 10 0
1971022S14118 1971 10 SI WA RITA 1971-01-30 01:00:00 NR -29.3000 109.700 1000 bom main 458 ______O_______ SH111971 -1 -29.3000 109.700 1000 TC 6 TC 14 166

IBTrACS Databaseについて

本データベースは、米国NOAAが公開する1842年以降の世界の熱帯低気圧のベストトラックデータアーカイブInternational Best Track Archive for Climate Stewardship (IBTrACS)を、ウェブで閲覧しやすい形式に変換したものです。

最終更新日:2021-11-26